Terminal Aerodrome Forecast
Issued by NWS Sioux Falls, SD

Home | Current Version | Previous Version | Text Only | Print | Product List | Glossary On
Versions: 1 2 3 4 5 6 7 8 9 10 11 12 13
000
FTUS43 KFSD 181720
TAFFSD
TAF
KFSD 181720Z 1818/1918 16012G22KT P6SM SCT035
     FM190600 16014G22KT P6SM SCT010
     FM190900 17014G22KT 4SM BR OVC006
     FM191500 22012G22KT P6SM BKN015=

USA.gov is the U.S. government's official web portal to all federal, state and local government web resources and services.